PH-0136 weather

Cocolife Building Heliport
Makati (Manila), Philippines

Public forecast

Using degrees Celsius for public forecast. Weather courtesy of forecast.io.

Closest aviation weather report (METAR) to Cocolife Building Heliport

Closest report is Ninoy Aquino International Airport, 3.0 nm (5.6 km) S. Retrieved 2019/11/17 13:00 UTC (51 minutes ago):

RPLL 171300Z 24005KT 210V290 9999 SCT025 OVC270 28/25 Q1010 NOSIG RMK A2983

Closest aviation forecast (TAF) to Cocolife Building Heliport

Closest forecast is Ninoy Aquino International Airport, 3.0 nm (5.6 km) S. Retrieved 2019/11/17 12:00 UTC (2 hours ago):

TAF RPLL 171100Z 1712/1818 27006KT 9999 FEW023 SCT100 TX32/1806Z TN26/1721Z TEMPO 1712/1718 24004KT 8000 -TSRA FEW022CB SCT023 BKN090 TEMPO 1718/1724 31005KT FEW023 BKN100